sensor_id;sensor_type;location;lat;lon;timestamp;temperature;humidity
51559;DHT22;61650;48.882;2.092;2023-03-23T00:01:09;11.90;90.70
51559;DHT22;61650;48.882;2.092;2023-03-23T00:03:36;11.90;90.90
51559;DHT22;61650;48.882;2.092;2023-03-23T00:06:03;11.90;89.90
51559;DHT22;61650;48.882;2.092;2023-03-23T00:08:31;11.90;89.60
51559;DHT22;61650;48.882;2.092;2023-03-23T00:10:57;11.90;89.10
51559;DHT22;61650;48.882;2.092;2023-03-23T00:13:26;11.90;89.30
51559;DHT22;61650;48.882;2.092;2023-03-23T00:15:52;11.90;88.60
51559;DHT22;61650;48.882;2.092;2023-03-23T00:18:19;11.80;89.20
51559;DHT22;61650;48.882;2.092;2023-03-23T00:20:49;11.80;88.20
51559;DHT22;61650;48.882;2.092;2023-03-23T00:23:19;11.80;88.30
51559;DHT22;61650;48.882;2.092;2023-03-23T00:25:52;11.80;89.30
51559;DHT22;61650;48.882;2.092;2023-03-23T00:28:19;11.80;89.60
51559;DHT22;61650;48.882;2.092;2023-03-23T00:30:57;11.80;88.50
51559;DHT22;61650;48.882;2.092;2023-03-23T00:33:24;11.70;88.60
51559;DHT22;61650;48.882;2.092;2023-03-23T00:35:52;11.70;88.80
51559;DHT22;61650;48.882;2.092;2023-03-23T00:38:19;11.70;88.00
51559;DHT22;61650;48.882;2.092;2023-03-23T00:40:45;11.70;89.10
51559;DHT22;61650;48.882;2.092;2023-03-23T00:43:15;11.70;87.90
51559;DHT22;61650;48.882;2.092;2023-03-23T00:45:43;11.70;88.00
51559;DHT22;61650;48.882;2.092;2023-03-23T00:48:13;11.70;88.40
51559;DHT22;61650;48.882;2.092;2023-03-23T00:50:39;11.70;89.30
51559;DHT22;61650;48.882;2.092;2023-03-23T00:53:05;11.70;88.50
51559;DHT22;61650;48.882;2.092;2023-03-23T00:55:30;11.70;88.80
51559;DHT22;61650;48.882;2.092;2023-03-23T00:57:56;11.80;88.10
51559;DHT22;61650;48.882;2.092;2023-03-23T01:00:22;11.70;88.60
51559;DHT22;61650;48.882;2.092;2023-03-23T01:02:49;11.70;89.00
51559;DHT22;61650;48.882;2.092;2023-03-23T01:05:20;11.80;89.10
51559;DHT22;61650;48.882;2.092;2023-03-23T01:07:46;11.80;89.60
51559;DHT22;61650;48.882;2.092;2023-03-23T01:10:13;11.80;90.30
51559;DHT22;61650;48.882;2.092;2023-03-23T01:12:42;11.70;90.40
51559;DHT22;61650;48.882;2.092;2023-03-23T01:15:09;11.70;89.70
51559;DHT22;61650;48.882;2.092;2023-03-23T01:17:35;11.80;91.20
51559;DHT22;61650;48.882;2.092;2023-03-23T01:20:01;11.70;91.20
51559;DHT22;61650;48.882;2.092;2023-03-23T01:22:26;11.70;90.30
51559;DHT22;61650;48.882;2.092;2023-03-23T01:24:52;11.70;90.40
51559;DHT22;61650;48.882;2.092;2023-03-23T01:27:17;11.80;90.20
51559;DHT22;61650;48.882;2.092;2023-03-23T01:29:43;11.80;90.00
51559;DHT22;61650;48.882;2.092;2023-03-23T01:32:08;11.80;89.90
51559;DHT22;61650;48.882;2.092;2023-03-23T01:34:34;11.80;89.20
51559;DHT22;61650;48.882;2.092;2023-03-23T01:37:00;11.80;89.80
51559;DHT22;61650;48.882;2.092;2023-03-23T01:39:26;11.80;90.10
51559;DHT22;61650;48.882;2.092;2023-03-23T01:41:51;11.70;89.50
51559;DHT22;61650;48.882;2.092;2023-03-23T01:46:43;11.70;89.40
51559;DHT22;61650;48.882;2.092;2023-03-23T01:49:15;11.70;89.20
51559;DHT22;61650;48.882;2.092;2023-03-23T01:52:06;11.70;88.90
51559;DHT22;61650;48.882;2.092;2023-03-23T01:54:35;11.70;90.10
51559;DHT22;61650;48.882;2.092;2023-03-23T01:57:06;11.70;89.70
51559;DHT22;61650;48.882;2.092;2023-03-23T01:59:33;11.70;89.60
51559;DHT22;61650;48.882;2.092;2023-03-23T02:02:00;11.70;89.40
51559;DHT22;61650;48.882;2.092;2023-03-23T02:04:27;11.70;89.60
51559;DHT22;61650;48.882;2.092;2023-03-23T02:06:54;11.60;89.60
51559;DHT22;61650;48.882;2.092;2023-03-23T02:09:24;11.70;89.40
51559;DHT22;61650;48.882;2.092;2023-03-23T02:11:50;11.60;89.20
51559;DHT22;61650;48.882;2.092;2023-03-23T02:14:21;11.70;89.10
51559;DHT22;61650;48.882;2.092;2023-03-23T02:16:53;11.60;89.80
51559;DHT22;61650;48.882;2.092;2023-03-23T02:25:10;11.60;89.30
51559;DHT22;61650;48.882;2.092;2023-03-23T02:34:02;11.60;89.00
51559;DHT22;61650;48.882;2.092;2023-03-23T02:36:36;11.70;88.60
51559;DHT22;61650;48.882;2.092;2023-03-23T02:39:12;11.70;89.10
51559;DHT22;61650;48.882;2.092;2023-03-23T02:42:04;11.70;89.00
51559;DHT22;61650;48.882;2.092;2023-03-23T02:44:32;11.70;89.80
51559;DHT22;61650;48.882;2.092;2023-03-23T02:47:00;11.70;89.10
51559;DHT22;61650;48.882;2.092;2023-03-23T02:49:29;11.60;88.70
51559;DHT22;61650;48.882;2.092;2023-03-23T02:51:58;11.70;87.60
51559;DHT22;61650;48.882;2.092;2023-03-23T02:54:25;11.70;87.80
51559;DHT22;61650;48.882;2.092;2023-03-23T02:56:53;11.70;89.30
51559;DHT22;61650;48.882;2.092;2023-03-23T02:59:20;11.70;87.50
51559;DHT22;61650;48.882;2.092;2023-03-23T03:01:52;11.70;87.80
51559;DHT22;61650;48.882;2.092;2023-03-23T03:04:23;11.70;88.00
51559;DHT22;61650;48.882;2.092;2023-03-23T03:10:46;11.70;89.10
51559;DHT22;61650;48.882;2.092;2023-03-23T03:21:23;11.70;88.90
51559;DHT22;61650;48.882;2.092;2023-03-23T03:23:54;11.70;87.60
51559;DHT22;61650;48.882;2.092;2023-03-23T03:26:22;11.70;87.80
51559;DHT22;61650;48.882;2.092;2023-03-23T03:28:52;11.80;89.40
51559;DHT22;61650;48.882;2.092;2023-03-23T03:31:20;11.70;88.10
51559;DHT22;61650;48.882;2.092;2023-03-23T03:33:47;11.70;88.70
51559;DHT22;61650;48.882;2.092;2023-03-23T03:36:18;11.70;88.60
51559;DHT22;61650;48.882;2.092;2023-03-23T03:38:48;11.70;89.20
51559;DHT22;61650;48.882;2.092;2023-03-23T03:41:14;11.70;88.70
51559;DHT22;61650;48.882;2.092;2023-03-23T03:43:40;11.80;87.50
51559;DHT22;61650;48.882;2.092;2023-03-23T03:46:06;11.80;88.30
51559;DHT22;61650;48.882;2.092;2023-03-23T03:48:32;11.70;87.60
51559;DHT22;61650;48.882;2.092;2023-03-23T03:50:58;11.70;87.80
51559;DHT22;61650;48.882;2.092;2023-03-23T03:53:26;11.80;87.20
51559;DHT22;61650;48.882;2.092;2023-03-23T03:55:52;11.80;87.80
51559;DHT22;61650;48.882;2.092;2023-03-23T03:58:21;11.80;86.50
51559;DHT22;61650;48.882;2.092;2023-03-23T04:00:47;11.80;86.70
51559;DHT22;61650;48.882;2.092;2023-03-23T04:03:13;11.80;86.60
51559;DHT22;61650;48.882;2.092;2023-03-23T04:05:39;11.80;86.80
51559;DHT22;61650;48.882;2.092;2023-03-23T04:08:05;11.80;86.80
51559;DHT22;61650;48.882;2.092;2023-03-23T04:10:32;11.80;86.50
51559;DHT22;61650;48.882;2.092;2023-03-23T04:12:58;11.80;87.30
51559;DHT22;61650;48.882;2.092;2023-03-23T04:15:24;11.80;86.70
51559;DHT22;61650;48.882;2.092;2023-03-23T04:17:50;11.80;87.70
51559;DHT22;61650;48.882;2.092;2023-03-23T04:20:16;11.80;87.10
51559;DHT22;61650;48.882;2.092;2023-03-23T04:22:48;11.80;87.10
51559;DHT22;61650;48.882;2.092;2023-03-23T04:25:16;11.80;87.20
51559;DHT22;61650;48.882;2.092;2023-03-23T04:27:43;11.90;87.70
51559;DHT22;61650;48.882;2.092;2023-03-23T04:30:10;11.90;86.30
51559;DHT22;61650;48.882;2.092;2023-03-23T04:32:39;11.90;87.40
51559;DHT22;61650;48.882;2.092;2023-03-23T04:35:12;12.00;86.90
51559;DHT22;61650;48.882;2.092;2023-03-23T04:37:38;12.00;85.90
51559;DHT22;61650;48.882;2.092;2023-03-23T04:40:05;12.00;86.20
51559;DHT22;61650;48.882;2.092;2023-03-23T04:42:34;11.90;85.30
51559;DHT22;61650;48.882;2.092;2023-03-23T04:45:00;11.90;85.90
51559;DHT22;61650;48.882;2.092;2023-03-23T04:47:28;11.90;85.60
51559;DHT22;61650;48.882;2.092;2023-03-23T04:49:56;11.90;86.20
51559;DHT22;61650;48.882;2.092;2023-03-23T04:52:26;11.90;86.60
51559;DHT22;61650;48.882;2.092;2023-03-23T04:54:54;11.90;85.90
51559;DHT22;61650;48.882;2.092;2023-03-23T04:57:21;11.90;86.30
51559;DHT22;61650;48.882;2.092;2023-03-23T04:59:47;11.90;85.60
51559;DHT22;61650;48.882;2.092;2023-03-23T05:02:12;11.90;85.70
51559;DHT22;61650;48.882;2.092;2023-03-23T05:04:39;11.90;85.90
51559;DHT22;61650;48.882;2.092;2023-03-23T05:07:10;11.90;85.50
51559;DHT22;61650;48.882;2.092;2023-03-23T05:09:35;11.90;85.30
51559;DHT22;61650;48.882;2.092;2023-03-23T05:12:09;11.90;85.60
51559;DHT22;61650;48.882;2.092;2023-03-23T05:14:35;11.90;85.90
51559;DHT22;61650;48.882;2.092;2023-03-23T05:17:01;12.00;85.50
51559;DHT22;61650;48.882;2.092;2023-03-23T05:19:27;11.90;86.80
51559;DHT22;61650;48.882;2.092;2023-03-23T05:21:54;11.80;88.60
51559;DHT22;61650;48.882;2.092;2023-03-23T05:24:21;11.70;88.60
51559;DHT22;61650;48.882;2.092;2023-03-23T05:26:47;11.60;92.50
51559;DHT22;61650;48.882;2.092;2023-03-23T05:29:17;11.50;92.80
51559;DHT22;61650;48.882;2.092;2023-03-23T05:31:43;11.40;94.70
51559;DHT22;61650;48.882;2.092;2023-03-23T05:34:08;11.30;97.50
51559;DHT22;61650;48.882;2.092;2023-03-23T05:36:34;11.20;97.00
51559;DHT22;61650;48.882;2.092;2023-03-23T05:39:00;11.00;98.50
51559;DHT22;61650;48.882;2.092;2023-03-23T05:41:29;10.90;99.90
51559;DHT22;61650;48.882;2.092;2023-03-23T05:43:54;10.90;99.90
51559;DHT22;61650;48.882;2.092;2023-03-23T05:46:20;10.80;99.90
51559;DHT22;61650;48.882;2.092;2023-03-23T05:48:45;10.80;99.90
51559;DHT22;61650;48.882;2.092;2023-03-23T05:51:11;10.70;99.90
51559;DHT22;61650;48.882;2.092;2023-03-23T05:53:37;10.70;99.90
51559;DHT22;61650;48.882;2.092;2023-03-23T05:56:03;10.70;99.90
51559;DHT22;61650;48.882;2.092;2023-03-23T05:58:29;10.60;99.90
51559;DHT22;61650;48.882;2.092;2023-03-23T06:00:55;10.50;99.90
51559;DHT22;61650;48.882;2.092;2023-03-23T06:03:21;10.40;99.90
51559;DHT22;61650;48.882;2.092;2023-03-23T06:05:47;10.40;99.90
51559;DHT22;61650;48.882;2.092;2023-03-23T06:08:14;10.30;99.90
51559;DHT22;61650;48.882;2.092;2023-03-23T06:10:39;10.30;99.90
51559;DHT22;61650;48.882;2.092;2023-03-23T06:13:05;10.30;99.90
51559;DHT22;61650;48.882;2.092;2023-03-23T06:15:31;10.30;99.90
51559;DHT22;61650;48.882;2.092;2023-03-23T06:17:59;10.30;99.90
51559;DHT22;61650;48.882;2.092;2023-03-23T06:20:25;10.30;99.90
51559;DHT22;61650;48.882;2.092;2023-03-23T06:22:51;10.30;99.90
51559;DHT22;61650;48.882;2.092;2023-03-23T06:25:18;10.30;99.90
51559;DHT22;61650;48.882;2.092;2023-03-23T06:27:44;10.40;99.90
51559;DHT22;61650;48.882;2.092;2023-03-23T06:30:12;10.30;99.90
51559;DHT22;61650;48.882;2.092;2023-03-23T06:32:40;10.40;99.90
51559;DHT22;61650;48.882;2.092;2023-03-23T06:35:08;10.50;99.90
51559;DHT22;61650;48.882;2.092;2023-03-23T06:37:35;10.60;99.90
51559;DHT22;61650;48.882;2.092;2023-03-23T06:40:02;10.60;99.90
51559;DHT22;61650;48.882;2.092;2023-03-23T06:42:29;10.70;99.90
51559;DHT22;61650;48.882;2.092;2023-03-23T06:44:55;10.70;99.90
51559;DHT22;61650;48.882;2.092;2023-03-23T06:47:26;10.80;99.90
51559;DHT22;61650;48.882;2.092;2023-03-23T06:49:52;10.80;99.90
51559;DHT22;61650;48.882;2.092;2023-03-23T06:52:18;10.90;99.90
51559;DHT22;61650;48.882;2.092;2023-03-23T06:54:44;11.00;99.90
51559;DHT22;61650;48.882;2.092;2023-03-23T06:57:09;11.00;99.90
51559;DHT22;61650;48.882;2.092;2023-03-23T06:59:35;11.00;99.90
51559;DHT22;61650;48.882;2.092;2023-03-23T07:02:01;11.10;99.90
51559;DHT22;61650;48.882;2.092;2023-03-23T07:04:27;11.10;99.90
51559;DHT22;61650;48.882;2.092;2023-03-23T07:06:52;11.20;99.90
51559;DHT22;61650;48.882;2.092;2023-03-23T07:09:18;11.20;99.90
51559;DHT22;61650;48.882;2.092;2023-03-23T07:11:44;11.30;99.90
51559;DHT22;61650;48.882;2.092;2023-03-23T07:14:11;11.40;99.90
51559;DHT22;61650;48.882;2.092;2023-03-23T07:16:37;11.40;99.90
51559;DHT22;61650;48.882;2.092;2023-03-23T07:19:02;11.50;99.90
51559;DHT22;61650;48.882;2.092;2023-03-23T07:21:28;11.50;99.90
51559;DHT22;61650;48.882;2.092;2023-03-23T07:23:54;11.50;99.90
51559;DHT22;61650;48.882;2.092;2023-03-23T07:26:20;11.50;99.90
51559;DHT22;61650;48.882;2.092;2023-03-23T07:28:45;11.60;99.90
51559;DHT22;61650;48.882;2.092;2023-03-23T07:31:12;11.60;99.90
51559;DHT22;61650;48.882;2.092;2023-03-23T07:33:37;11.70;99.90
51559;DHT22;61650;48.882;2.092;2023-03-23T07:36:04;11.80;96.00
51559;DHT22;61650;48.882;2.092;2023-03-23T07:38:30;11.90;97.80
51559;DHT22;61650;48.882;2.092;2023-03-23T07:40:57;11.90;93.90
51559;DHT22;61650;48.882;2.092;2023-03-23T07:43:23;11.90;97.90
51559;DHT22;61650;48.882;2.092;2023-03-23T07:45:49;12.00;95.70
51559;DHT22;61650;48.882;2.092;2023-03-23T07:48:15;12.00;98.10
51559;DHT22;61650;48.882;2.092;2023-03-23T07:50:40;12.00;93.20
51559;DHT22;61650;48.882;2.092;2023-03-23T07:53:07;12.10;93.30
51559;DHT22;61650;48.882;2.092;2023-03-23T07:55:32;12.10;94.40
51559;DHT22;61650;48.882;2.092;2023-03-23T07:57:58;12.10;92.30
51559;DHT22;61650;48.882;2.092;2023-03-23T08:00:24;12.10;92.00
51559;DHT22;61650;48.882;2.092;2023-03-23T08:02:54;12.20;94.50
51559;DHT22;61650;48.882;2.092;2023-03-23T08:05:21;12.30;91.40
51559;DHT22;61650;48.882;2.092;2023-03-23T08:07:47;12.30;92.00
51559;DHT22;61650;48.882;2.092;2023-03-23T08:10:15;12.30;89.00
51559;DHT22;61650;48.882;2.092;2023-03-23T08:12:43;12.40;89.10
51559;DHT22;61650;48.882;2.092;2023-03-23T08:15:11;12.40;89.30
51559;DHT22;61650;48.882;2.092;2023-03-23T08:17:41;12.50;89.70
51559;DHT22;61650;48.882;2.092;2023-03-23T08:20:07;12.50;87.40
51559;DHT22;61650;48.882;2.092;2023-03-23T08:22:40;12.50;86.10
51559;DHT22;61650;48.882;2.092;2023-03-23T08:25:08;12.50;84.90
51559;DHT22;61650;48.882;2.092;2023-03-23T08:27:35;12.60;86.70
51559;DHT22;61650;48.882;2.092;2023-03-23T08:30:00;12.70;84.40
51559;DHT22;61650;48.882;2.092;2023-03-23T08:32:26;12.70;84.90
51559;DHT22;61650;48.882;2.092;2023-03-23T08:34:53;12.70;82.80
51559;DHT22;61650;48.882;2.092;2023-03-23T08:37:18;12.80;84.90
51559;DHT22;61650;48.882;2.092;2023-03-23T08:39:44;12.80;83.50
51559;DHT22;61650;48.882;2.092;2023-03-23T08:42:10;12.80;83.30
51559;DHT22;61650;48.882;2.092;2023-03-23T08:44:37;12.80;84.00
51559;DHT22;61650;48.882;2.092;2023-03-23T08:47:03;12.80;82.20
51559;DHT22;61650;48.882;2.092;2023-03-23T08:49:31;12.70;84.60
51559;DHT22;61650;48.882;2.092;2023-03-23T08:51:59;12.70;83.60
51559;DHT22;61650;48.882;2.092;2023-03-23T08:54:25;12.80;83.70
51559;DHT22;61650;48.882;2.092;2023-03-23T08:56:50;12.70;82.50
51559;DHT22;61650;48.882;2.092;2023-03-23T08:59:16;12.70;82.90
51559;DHT22;61650;48.882;2.092;2023-03-23T09:01:42;12.70;82.80
51559;DHT22;61650;48.882;2.092;2023-03-23T09:04:08;12.70;82.70
51559;DHT22;61650;48.882;2.092;2023-03-23T09:06:37;12.80;82.50
51559;DHT22;61650;48.882;2.092;2023-03-23T09:09:12;12.70;82.70
51559;DHT22;61650;48.882;2.092;2023-03-23T09:11:38;12.80;81.30
51559;DHT22;61650;48.882;2.092;2023-03-23T09:14:05;12.90;82.80
51559;DHT22;61650;48.882;2.092;2023-03-23T09:16:32;13.10;80.90
51559;DHT22;61650;48.882;2.092;2023-03-23T09:18:58;13.30;83.60
51559;DHT22;61650;48.882;2.092;2023-03-23T09:21:25;13.50;78.70
51559;DHT22;61650;48.882;2.092;2023-03-23T09:23:53;13.40;79.30
51559;DHT22;61650;48.882;2.092;2023-03-23T09:26:24;13.40;79.10
51559;DHT22;61650;48.882;2.092;2023-03-23T09:28:50;13.50;81.60
51559;DHT22;61650;48.882;2.092;2023-03-23T09:31:17;13.60;79.50
51559;DHT22;61650;48.882;2.092;2023-03-23T09:33:58;13.60;80.00
51559;DHT22;61650;48.882;2.092;2023-03-23T09:36:25;13.50;77.30
51559;DHT22;61650;48.882;2.092;2023-03-23T09:38:57;13.50;78.90
51559;DHT22;61650;48.882;2.092;2023-03-23T09:47:28;13.30;77.10
51559;DHT22;61650;48.882;2.092;2023-03-23T09:50:02;13.20;76.90
51559;DHT22;61650;48.882;2.092;2023-03-23T09:52:50;13.20;77.30
51559;DHT22;61650;48.882;2.092;2023-03-23T09:55:18;13.20;77.50
51559;DHT22;61650;48.882;2.092;2023-03-23T09:57:56;13.30;77.30
51559;DHT22;61650;48.882;2.092;2023-03-23T10:00:45;13.40;76.50
51559;DHT22;61650;48.882;2.092;2023-03-23T10:03:39;13.60;78.10
51559;DHT22;61650;48.882;2.092;2023-03-23T10:09:11;14.00;75.30
51559;DHT22;61650;48.882;2.092;2023-03-23T10:21:15;14.30;72.70
51559;DHT22;61650;48.882;2.092;2023-03-23T10:23:57;14.40;73.80
51559;DHT22;61650;48.882;2.092;2023-03-23T10:29:57;14.40;72.90
51559;DHT22;61650;48.882;2.092;2023-03-23T10:35:24;14.20;71.90
51559;DHT22;61650;48.882;2.092;2023-03-23T10:38:11;14.30;72.60
51559;DHT22;61650;48.882;2.092;2023-03-23T10:41:14;14.50;72.10
51559;DHT22;61650;48.882;2.092;2023-03-23T10:43:43;14.70;70.60
51559;DHT22;61650;48.882;2.092;2023-03-23T10:46:45;14.70;70.60
51559;DHT22;61650;48.882;2.092;2023-03-23T10:49:21;14.70;69.70
51559;DHT22;61650;48.882;2.092;2023-03-23T10:51:59;14.70;69.90
51559;DHT22;61650;48.882;2.092;2023-03-23T10:54:35;14.70;72.40
51559;DHT22;61650;48.882;2.092;2023-03-23T10:57:13;14.70;73.60
51559;DHT22;61650;48.882;2.092;2023-03-23T10:59:45;14.70;75.40
51559;DHT22;61650;48.882;2.092;2023-03-23T11:02:17;14.70;69.70
51559;DHT22;61650;48.882;2.092;2023-03-23T11:05:06;14.70;72.00
51559;DHT22;61650;48.882;2.092;2023-03-23T11:07:35;14.70;69.20
51559;DHT22;61650;48.882;2.092;2023-03-23T11:10:22;14.60;72.20
51559;DHT22;61650;48.882;2.092;2023-03-23T11:12:49;14.70;70.60
51559;DHT22;61650;48.882;2.092;2023-03-23T11:15:39;14.70;71.60
51559;DHT22;61650;48.882;2.092;2023-03-23T11:18:17;14.80;70.70
51559;DHT22;61650;48.882;2.092;2023-03-23T11:20:45;14.80;70.50
51559;DHT22;61650;48.882;2.092;2023-03-23T11:23:26;14.80;73.60
51559;DHT22;61650;48.882;2.092;2023-03-23T11:26:13;14.90;71.80
51559;DHT22;61650;48.882;2.092;2023-03-23T11:31:34;14.90;70.30
51559;DHT22;61650;48.882;2.092;2023-03-23T11:34:16;15.10;69.60
51559;DHT22;61650;48.882;2.092;2023-03-23T11:36:49;15.10;70.20
51559;DHT22;61650;48.882;2.092;2023-03-23T11:39:25;15.30;68.90
51559;DHT22;61650;48.882;2.092;2023-03-23T11:41:52;15.20;67.70
51559;DHT22;61650;48.882;2.092;2023-03-23T11:44:21;15.30;67.60
51559;DHT22;61650;48.882;2.092;2023-03-23T11:52:52;15.20;69.80
51559;DHT22;61650;48.882;2.092;2023-03-23T11:55:25;15.40;70.50
51559;DHT22;61650;48.882;2.092;2023-03-23T11:57:54;15.40;65.80
51559;DHT22;61650;48.882;2.092;2023-03-23T12:00:21;15.60;66.20
51559;DHT22;61650;48.882;2.092;2023-03-23T12:03:28;15.60;66.30
51559;DHT22;61650;48.882;2.092;2023-03-23T12:06:10;15.90;66.50
51559;DHT22;61650;48.882;2.092;2023-03-23T12:09:45;16.10;64.70
51559;DHT22;61650;48.882;2.092;2023-03-23T12:20:01;16.60;67.30
51559;DHT22;61650;48.882;2.092;2023-03-23T12:31:21;16.00;66.40
51559;DHT22;61650;48.882;2.092;2023-03-23T12:41:58;17.60;60.60
51559;DHT22;61650;48.882;2.092;2023-03-23T12:44:42;17.90;56.50
51559;DHT22;61650;48.882;2.092;2023-03-23T12:50:26;16.90;64.10
51559;DHT22;61650;48.882;2.092;2023-03-23T12:53:11;17.10;59.30
51559;DHT22;61650;48.882;2.092;2023-03-23T12:56:02;18.10;56.40
51559;DHT22;61650;48.882;2.092;2023-03-23T12:58:33;17.80;56.60
51559;DHT22;61650;48.882;2.092;2023-03-23T13:01:05;17.10;58.30
51559;DHT22;61650;48.882;2.092;2023-03-23T13:11:40;16.50;60.60
51559;DHT22;61650;48.882;2.092;2023-03-23T13:23:04;16.00;61.40
51559;DHT22;61650;48.882;2.092;2023-03-23T13:28:32;16.30;61.10
51559;DHT22;61650;48.882;2.092;2023-03-23T13:31:13;16.30;62.30
51559;DHT22;61650;48.882;2.092;2023-03-23T13:33:57;16.30;61.50
51559;DHT22;61650;48.882;2.092;2023-03-23T13:36:36;16.20;61.60
51559;DHT22;61650;48.882;2.092;2023-03-23T13:39:05;16.30;63.50
51559;DHT22;61650;48.882;2.092;2023-03-23T13:41:33;16.50;60.70
51559;DHT22;61650;48.882;2.092;2023-03-23T13:44:26;17.30;61.80
51559;DHT22;61650;48.882;2.092;2023-03-23T13:46:57;17.50;56.60
51559;DHT22;61650;48.882;2.092;2023-03-23T13:49:32;17.50;56.30
51559;DHT22;61650;48.882;2.092;2023-03-23T13:58:43;17.70;52.90
51559;DHT22;61650;48.882;2.092;2023-03-23T14:01:00;17.20;54.20
51559;DHT22;61650;48.882;2.092;2023-03-23T14:03:38;17.00;56.70
51559;DHT22;61650;48.882;2.092;2023-03-23T14:06:07;16.90;61.20
51559;DHT22;61650;48.882;2.092;2023-03-23T14:08:39;16.80;61.50
51559;DHT22;61650;48.882;2.092;2023-03-23T14:11:22;16.60;57.00
51559;DHT22;61650;48.882;2.092;2023-03-23T14:14:07;16.60;59.00
51559;DHT22;61650;48.882;2.092;2023-03-23T14:19:00;16.30;59.90
51559;DHT22;61650;48.882;2.092;2023-03-23T14:21:34;16.30;63.30
51559;DHT22;61650;48.882;2.092;2023-03-23T14:24:09;16.40;59.90
51559;DHT22;61650;48.882;2.092;2023-03-23T14:26:35;16.50;57.70
51559;DHT22;61650;48.882;2.092;2023-03-23T14:29:01;16.40;58.90
51559;DHT22;61650;48.882;2.092;2023-03-23T14:31:28;16.40;60.10
51559;DHT22;61650;48.882;2.092;2023-03-23T14:33:56;16.30;58.90
51559;DHT22;61650;48.882;2.092;2023-03-23T14:36:25;16.30;64.90
51559;DHT22;61650;48.882;2.092;2023-03-23T14:39:21;16.30;62.20
51559;DHT22;61650;48.882;2.092;2023-03-23T14:41:48;16.30;61.10
51559;DHT22;61650;48.882;2.092;2023-03-23T14:44:17;16.30;62.10
51559;DHT22;61650;48.882;2.092;2023-03-23T14:46:44;16.30;64.80
51559;DHT22;61650;48.882;2.092;2023-03-23T14:49:16;16.40;62.30
51559;DHT22;61650;48.882;2.092;2023-03-23T14:51:51;16.50;63.30
51559;DHT22;61650;48.882;2.092;2023-03-23T14:54:22;16.50;62.90
51559;DHT22;61650;48.882;2.092;2023-03-23T14:56:49;16.40;64.80
51559;DHT22;61650;48.882;2.092;2023-03-23T14:59:15;16.30;62.40
51559;DHT22;61650;48.882;2.092;2023-03-23T15:01:41;16.50;66.30
51559;DHT22;61650;48.882;2.092;2023-03-23T15:04:18;16.60;67.50
51559;DHT22;61650;48.882;2.092;2023-03-23T15:06:58;16.60;64.30
51559;DHT22;61650;48.882;2.092;2023-03-23T15:09:25;16.60;61.80
51559;DHT22;61650;48.882;2.092;2023-03-23T15:11:59;16.70;68.60
51559;DHT22;61650;48.882;2.092;2023-03-23T15:14:44;16.80;62.80
51559;DHT22;61650;48.882;2.092;2023-03-23T15:17:18;16.80;69.40
51559;DHT22;61650;48.882;2.092;2023-03-23T15:19:45;16.50;61.50
51559;DHT22;61650;48.882;2.092;2023-03-23T15:22:19;16.40;65.90
51559;DHT22;61650;48.882;2.092;2023-03-23T15:24:45;16.30;63.50
51559;DHT22;61650;48.882;2.092;2023-03-23T15:27:34;16.20;61.50
51559;DHT22;61650;48.882;2.092;2023-03-23T15:32:41;16.20;60.90
51559;DHT22;61650;48.882;2.092;2023-03-23T15:35:22;16.20;68.30
51559;DHT22;61650;48.882;2.092;2023-03-23T15:37:59;16.10;61.00
51559;DHT22;61650;48.882;2.092;2023-03-23T15:40:27;16.10;63.40
51559;DHT22;61650;48.882;2.092;2023-03-23T15:48:30;15.90;65.00
51559;DHT22;61650;48.882;2.092;2023-03-23T15:50:56;15.90;63.90
51559;DHT22;61650;48.882;2.092;2023-03-23T15:55:52;15.80;66.60
51559;DHT22;61650;48.882;2.092;2023-03-23T15:58:18;15.70;63.20
51559;DHT22;61650;48.882;2.092;2023-03-23T16:00:45;15.70;63.80
51559;DHT22;61650;48.882;2.092;2023-03-23T16:03:17;15.70;68.50
51559;DHT22;61650;48.882;2.092;2023-03-23T16:05:44;15.60;68.00
51559;DHT22;61650;48.882;2.092;2023-03-23T16:08:13;15.60;65.20
51559;DHT22;61650;48.882;2.092;2023-03-23T16:10:39;15.50;65.30
51559;DHT22;61650;48.882;2.092;2023-03-23T16:13:04;15.50;64.70
51559;DHT22;61650;48.882;2.092;2023-03-23T16:15:31;15.50;69.90
51559;DHT22;61650;48.882;2.092;2023-03-23T16:17:57;15.50;68.10
51559;DHT22;61650;48.882;2.092;2023-03-23T16:20:23;15.40;65.30
51559;DHT22;61650;48.882;2.092;2023-03-23T16:22:50;15.40;64.10
51559;DHT22;61650;48.882;2.092;2023-03-23T16:25:16;15.40;64.20
51559;DHT22;61650;48.882;2.092;2023-03-23T16:27:44;15.40;66.40
51559;DHT22;61650;48.882;2.092;2023-03-23T16:30:26;15.30;65.00
51559;DHT22;61650;48.882;2.092;2023-03-23T16:32:52;15.30;66.50
51559;DHT22;61650;48.882;2.092;2023-03-23T16:35:19;15.20;64.00
51559;DHT22;61650;48.882;2.092;2023-03-23T16:37:50;15.20;71.70
51559;DHT22;61650;48.882;2.092;2023-03-23T16:40:17;15.20;64.90
51559;DHT22;61650;48.882;2.092;2023-03-23T16:42:43;15.20;63.60
51559;DHT22;61650;48.882;2.092;2023-03-23T16:45:10;15.10;65.40
51559;DHT22;61650;48.882;2.092;2023-03-23T16:47:35;15.10;63.60
51559;DHT22;61650;48.882;2.092;2023-03-23T16:50:02;15.10;63.20
51559;DHT22;61650;48.882;2.092;2023-03-23T16:52:28;15.10;65.00
51559;DHT22;61650;48.882;2.092;2023-03-23T16:54:53;15.00;64.70
51559;DHT22;61650;48.882;2.092;2023-03-23T16:57:19;15.00;67.60
51559;DHT22;61650;48.882;2.092;2023-03-23T16:59:45;15.00;64.00
51559;DHT22;61650;48.882;2.092;2023-03-23T17:02:11;15.00;66.70
51559;DHT22;61650;48.882;2.092;2023-03-23T17:04:42;15.00;67.70
51559;DHT22;61650;48.882;2.092;2023-03-23T17:07:08;14.90;65.30
51559;DHT22;61650;48.882;2.092;2023-03-23T17:09:34;14.90;66.00
51559;DHT22;61650;48.882;2.092;2023-03-23T17:11:59;14.90;67.10
51559;DHT22;61650;48.882;2.092;2023-03-23T17:14:25;14.90;65.60
51559;DHT22;61650;48.882;2.092;2023-03-23T17:16:51;14.90;65.40
51559;DHT22;61650;48.882;2.092;2023-03-23T17:19:17;14.90;66.20
51559;DHT22;61650;48.882;2.092;2023-03-23T17:21:42;14.90;66.10
51559;DHT22;61650;48.882;2.092;2023-03-23T17:24:08;14.90;69.50
51559;DHT22;61650;48.882;2.092;2023-03-23T17:26:34;14.90;66.30
51559;DHT22;61650;48.882;2.092;2023-03-23T17:29:01;14.90;71.00
51559;DHT22;61650;48.882;2.092;2023-03-23T17:31:27;14.90;65.20
51559;DHT22;61650;48.882;2.092;2023-03-23T17:33:53;14.90;67.60
51559;DHT22;61650;48.882;2.092;2023-03-23T17:36:18;14.80;67.00
51559;DHT22;61650;48.882;2.092;2023-03-23T17:38:44;14.80;67.60
51559;DHT22;61650;48.882;2.092;2023-03-23T17:41:10;14.80;66.50
51559;DHT22;61650;48.882;2.092;2023-03-23T17:43:37;14.70;67.10
51559;DHT22;61650;48.882;2.092;2023-03-23T17:46:09;14.70;68.20
51559;DHT22;61650;48.882;2.092;2023-03-23T17:48:35;14.70;67.70
51559;DHT22;61650;48.882;2.092;2023-03-23T17:51:01;14.60;70.00
51559;DHT22;61650;48.882;2.092;2023-03-23T17:53:28;14.60;73.00